Terminal Aerodrome Forecast
Issued by NWS

Home | Current Version | Previous Version | Text Only | Print | Product List | Glossary Off
Versions: 1 2 3 4 5 6 7 8 9 10 11 12 13 14 15 16 17 18 19

000
FTUS41 KCLE 220100 AAA
TAFFDY
TAF AMD
KFDY 220159Z 2202/2224 32009KT P6SM SCT025 OVC040
      TEMPO 2202/2206 BKN025
     FM220600 33008KT P6SM BKN025
     FM221400 35009KT P6SM SCT035=

USA.gov is the U.S. government's official web portal to all federal, state and local government web resources and services.